Time,TemperatureF,DewpointF,PressureIn,WindDirection,WindDirectionDegrees,WindSpeedMPH,WindSpeedGustMPH,Humidity,HourlyPrecipIn,Conditions,Clouds,dailyrainin,SoftwareType,DateUTC
2013-05-06 00:12:00,46.4,46.0,29.70,NW,305,0.0,0.0,100,0.00,,,0.00,weatherlink.com 1.10,2013-05-06 04:12:00,
2013-05-06 00:27:00,46.0,46.0,29.70,NW,305,0.0,0.0,100,0.01,,,0.01,weatherlink.com 1.10,2013-05-06 04:27:00,
2013-05-06 00:42:00,45.9,46.0,29.70,NW,305,0.0,0.0,100,0.01,,,0.01,weatherlink.com 1.10,2013-05-06 04:42:00,
2013-05-06 00:57:00,46.3,46.0,29.69,NW,305,0.0,0.0,100,0.01,,,0.01,weatherlink.com 1.10,2013-05-06 04:57:00,
2013-05-06 01:12:00,46.4,46.0,29.69,NW,305,0.0,1.0,100,0.01,,,0.01,weatherlink.com 1.10,2013-05-06 05:12:00,
2013-05-06 01:27:00,46.3,46.0,29.69,NW,305,0.0,0.0,99,0.00,,,0.01,weatherlink.com 1.10,2013-05-06 05:27:00,
2013-05-06 01:42:00,45.8,46.0,29.68,NW,305,0.0,1.0,100,0.00,,,0.01,weatherlink.com 1.10,2013-05-06 05:42:00,
2013-05-06 01:57:00,45.8,46.0,29.68,NW,305,0.0,0.0,100,0.00,,,0.01,weatherlink.com 1.10,2013-05-06 05:57:00,
2013-05-06 02:12:00,45.9,46.0,29.68,NW,305,0.0,0.0,100,0.01,,,0.02,weatherlink.com 1.10,2013-05-06 06:12:00,
2013-05-06 02:27:00,46.0,46.0,29.68,NE,48,1.0,5.0,100,0.02,,,0.03,weatherlink.com 1.10,2013-05-06 06:27:00,
2013-05-06 02:42:00,46.3,46.0,29.68,NE,48,0.0,2.0,100,0.03,,,0.04,weatherlink.com 1.10,2013-05-06 06:42:00,
2013-05-06 02:57:00,46.5,47.0,29.68,NE,48,0.0,2.0,100,0.03,,,0.04,weatherlink.com 1.10,2013-05-06 06:57:00,
2013-05-06 03:12:00,46.5,47.0,29.67,NNE,24,0.0,3.0,100,0.02,,,0.04,weatherlink.com 1.10,2013-05-06 07:12:00,
2013-05-06 03:27:00,46.5,47.0,29.66,NNE,24,0.0,3.0,100,0.01,,,0.04,weatherlink.com 1.10,2013-05-06 07:27:00,
2013-05-06 03:42:00,46.5,47.0,29.66,NNE,24,0.0,1.0,100,0.00,,,0.04,weatherlink.com 1.10,2013-05-06 07:42:00,
2013-05-06 04:12:00,46.8,47.0,29.67,West,259,2.0,3.0,99,0.00,,,0.04,weatherlink.com 1.10,2013-05-06 08:12:00,
2013-05-06 04:27:00,46.6,46.0,29.67,NNE,19,0.0,6.0,99,0.02,,,0.06,weatherlink.com 1.10,2013-05-06 08:27:00,
2013-05-06 04:42:00,46.7,46.0,29.67,NNW,347,0.0,6.0,98,0.02,,,0.06,weatherlink.com 1.10,2013-05-06 08:42:00,
2013-05-06 04:57:00,47.2,46.0,29.68,ESE,119,2.0,9.0,94,0.02,,,0.06,weatherlink.com 1.10,2013-05-06 08:57:00,
2013-05-06 05:12:00,47.0,46.0,29.67,NE,40,2.0,5.0,95,0.02,,,0.06,weatherlink.com 1.10,2013-05-06 09:12:00,
2013-05-06 05:27:00,47.0,45.0,29.67,ESE,104,0.0,8.0,91,0.00,,,0.06,weatherlink.com 1.10,2013-05-06 09:27:00,
2013-05-06 05:42:00,46.8,45.0,29.67,NE,54,3.0,4.0,92,0.00,,,0.06,weatherlink.com 1.10,2013-05-06 09:42:00,
2013-05-06 05:57:00,46.2,44.0,29.68,WSW,243,2.0,3.0,93,0.00,,,0.06,weatherlink.com 1.10,2013-05-06 09:57:00,
2013-05-06 06:13:00,46.5,44.0,29.68,NE,44,1.0,7.0,90,0.00,,,0.06,weatherlink.com 1.10,2013-05-06 10:13:00,
2013-05-06 06:28:00,45.8,43.0,29.68,ENE,77,0.0,5.0,91,0.00,,,0.06,weatherlink.com 1.10,2013-05-06 10:28:00,
2013-05-06 06:43:00,45.6,44.0,29.69,NE,42,0.0,2.0,92,0.00,,,0.06,weatherlink.com 1.10,2013-05-06 10:43:00,
2013-05-06 06:58:00,45.2,43.0,29.69,NNE,30,0.0,5.0,92,0.00,,,0.06,weatherlink.com 1.10,2013-05-06 10:58:00,
2013-05-06 07:13:00,45.2,43.0,29.70,NNE,32,3.0,3.0,92,0.00,,,0.06,weatherlink.com 1.10,2013-05-06 11:13:00,
2013-05-06 07:28:00,45.6,43.0,29.70,NE,53,0.0,4.0,90,0.00,,,0.06,weatherlink.com 1.10,2013-05-06 11:28:00,
2013-05-06 07:43:00,46.4,43.0,29.70,SE,146,0.0,4.0,88,0.00,,,0.06,weatherlink.com 1.10,2013-05-06 11:43:00,
2013-05-06 07:58:00,46.6,43.0,29.71,West,278,0.0,3.0,87,0.00,,,0.06,weatherlink.com 1.10,2013-05-06 11:58:00,
2013-05-06 08:13:00,46.7,43.0,29.71,NE,41,4.0,5.0,85,0.00,,,0.06,weatherlink.com 1.10,2013-05-06 12:13:00,
2013-05-06 08:28:00,46.8,43.0,29.71,North,358,0.0,3.0,85,0.00,,,0.06,weatherlink.com 1.10,2013-05-06 12:28:00,
2013-05-06 08:43:00,46.9,43.0,29.71,North,5,0.0,4.0,86,0.00,,,0.06,weatherlink.com 1.10,2013-05-06 12:43:00,
2013-05-06 08:58:00,47.3,43.0,29.71,North,4,0.0,7.0,84,0.00,,,0.06,weatherlink.com 1.10,2013-05-06 12:58:00,
2013-05-06 09:13:00,47.3,42.0,29.71,NNW,343,2.0,7.0,83,0.00,,,0.06,weatherlink.com 1.10,2013-05-06 13:13:00,
2013-05-06 09:28:00,48.7,44.0,29.71,NW,307,3.0,4.0,83,0.00,,,0.06,weatherlink.com 1.10,2013-05-06 13:28:00,
2013-05-06 09:43:00,49.9,44.0,29.71,NNW,328,0.0,11.0,79,0.00,,,0.06,weatherlink.com 1.10,2013-05-06 13:43:00,
2013-05-06 09:58:00,50.9,45.0,29.72,WNW,284,3.0,8.0,80,0.00,,,0.06,weatherlink.com 1.10,2013-05-06 13:58:00,
2013-05-06 10:13:00,51.3,45.0,29.73,WNW,289,5.0,6.0,79,0.00,,,0.06,weatherlink.com 1.10,2013-05-06 14:13:00,
2013-05-06 10:29:00,51.4,44.0,29.73,SSW,198,1.0,5.0,77,0.00,,,0.06,weatherlink.com 1.10,2013-05-06 14:29:00,
2013-05-06 10:43:00,51.9,40.0,29.73,WNW,285,4.0,9.0,64,0.00,,,0.06,weatherlink.com 1.10,2013-05-06 14:43:00,
2013-05-06 10:58:00,52.9,37.0,29.73,NW,308,5.0,10.0,55,0.00,,,0.06,weatherlink.com 1.10,2013-05-06 14:58:00,
2013-05-06 11:13:00,53.6,35.0,29.73,NW,305,4.0,7.0,50,0.00,,,0.06,weatherlink.com 1.10,2013-05-06 15:13:00,
2013-05-06 11:28:00,54.2,33.0,29.74,SE,140,4.0,9.0,44,0.00,,,0.06,weatherlink.com 1.10,2013-05-06 15:28:00,
2013-05-06 11:44:00,54.5,33.0,29.73,SW,216,4.0,7.0,45,0.00,,,0.06,weatherlink.com 1.10,2013-05-06 15:44:00,
2013-05-06 11:59:00,54.7,33.0,29.73,WNW,286,1.0,10.0,44,0.00,,,0.06,weatherlink.com 1.10,2013-05-06 15:59:00,
2013-05-06 12:29:00,56.2,38.0,29.72,SW,214,2.0,11.0,50,0.01,,,0.07,weatherlink.com 1.10,2013-05-06 16:29:00,
2013-05-06 12:44:00,55.9,35.0,29.72,West,262,1.0,9.0,45,0.01,,,0.07,weatherlink.com 1.10,2013-05-06 16:44:00,
2013-05-06 12:59:00,56.4,37.0,29.72,SW,236,5.0,7.0,49,0.01,,,0.07,weatherlink.com 1.10,2013-05-06 16:59:00,
2013-05-06 13:14:00,56.1,35.0,29.72,WNW,290,4.0,10.0,46,0.00,,,0.07,weatherlink.com 1.10,2013-05-06 17:14:00,
2013-05-06 13:29:00,57.3,34.0,29.72,WNW,300,4.0,12.0,41,0.00,,,0.07,weatherlink.com 1.10,2013-05-06 17:29:00,
2013-05-06 13:44:00,55.7,31.0,29.72,NNW,328,0.0,10.0,39,0.00,,,0.07,weatherlink.com 1.10,2013-05-06 17:44:00,
2013-05-06 13:59:00,56.3,31.0,29.72,WSW,237,2.0,9.0,39,0.00,,,0.07,weatherlink.com 1.10,2013-05-06 17:59:00,
2013-05-06 14:14:00,56.5,32.0,29.72,WSW,246,2.0,12.0,40,0.00,,,0.07,weatherlink.com 1.10,2013-05-06 18:14:00,
2013-05-06 14:29:00,57.8,33.0,29.72,NNW,334,1.0,10.0,40,0.00,,,0.07,weatherlink.com 1.10,2013-05-06 18:29:00,
2013-05-06 14:44:00,58.5,36.0,29.72,ENE,58,3.0,7.0,43,0.00,,,0.07,weatherlink.com 1.10,2013-05-06 18:44:00,
2013-05-06 14:59:00,57.7,35.0,29.72,SW,216,0.0,7.0,43,0.00,,,0.07,weatherlink.com 1.10,2013-05-06 18:59:00,
2013-05-06 15:14:00,59.5,38.0,29.71,SW,231,3.0,4.0,45,0.00,,,0.07,weatherlink.com 1.10,2013-05-06 19:14:00,
2013-05-06 15:29:00,58.5,36.0,29.71,WNW,297,5.0,7.0,44,0.00,,,0.07,weatherlink.com 1.10,2013-05-06 19:29:00,
2013-05-06 15:44:00,58.6,38.0,29.71,SSW,193,0.0,6.0,47,0.00,,,0.07,weatherlink.com 1.10,2013-05-06 19:44:00,
2013-05-06 15:59:00,57.8,36.0,29.71,WSW,239,2.0,6.0,45,0.00,,,0.07,weatherlink.com 1.10,2013-05-06 19:59:00,
2013-05-06 16:14:00,57.6,36.0,29.71,SSW,205,6.0,10.0,45,0.00,,,0.07,weatherlink.com 1.10,2013-05-06 20:14:00,
2013-05-06 16:29:00,56.3,36.0,29.72,SW,214,2.0,6.0,47,0.00,,,0.07,weatherlink.com 1.10,2013-05-06 20:29:00,
2013-05-06 16:44:00,56.4,36.0,29.71,SSW,194,0.0,7.0,47,0.00,,,0.07,weatherlink.com 1.10,2013-05-06 20:44:00,
2013-05-06 16:59:00,56.0,38.0,29.71,SSW,210,3.0,6.0,52,0.00,,,0.07,weatherlink.com 1.10,2013-05-06 20:59:00,
2013-05-06 17:14:00,55.5,38.0,29.71,SW,222,2.0,8.0,52,0.00,,,0.07,weatherlink.com 1.10,2013-05-06 21:14:00,
2013-05-06 17:29:00,56.2,37.0,29.72,SW,216,3.0,5.0,48,0.00,,,0.07,weatherlink.com 1.10,2013-05-06 21:29:00,
2013-05-06 17:44:00,56.4,38.0,29.72,SW,225,2.0,6.0,51,0.00,,,0.07,weatherlink.com 1.10,2013-05-06 21:44:00,
2013-05-06 17:59:00,56.8,37.0,29.71,NE,41,4.0,6.0,47,0.00,,,0.07,weatherlink.com 1.10,2013-05-06 21:59:00,
2013-05-06 18:14:00,55.9,37.0,29.72,West,281,1.0,4.0,50,0.00,,,0.07,weatherlink.com 1.10,2013-05-06 22:14:00,
2013-05-06 18:29:00,54.9,38.0,29.72,WSW,243,2.0,4.0,53,0.00,,,0.07,weatherlink.com 1.10,2013-05-06 22:29:00,
2013-05-06 18:44:00,54.0,39.0,29.72,WSW,241,0.0,2.0,57,0.00,,,0.07,weatherlink.com 1.10,2013-05-06 22:44:00,
2013-05-06 18:59:00,53.4,41.0,29.73,SSW,204,4.0,5.0,63,0.00,,,0.07,weatherlink.com 1.10,2013-05-06 22:59:00,
2013-05-06 19:14:00,52.2,41.0,29.73,SSW,192,0.0,3.0,66,0.00,,,0.07,weatherlink.com 1.10,2013-05-06 23:14:00,
2013-05-06 19:29:00,51.6,40.0,29.73,South,170,1.0,2.0,66,0.00,,,0.07,weatherlink.com 1.10,2013-05-06 23:29:00,
2013-05-06 19:44:00,51.0,40.0,29.73,South,185,0.0,5.0,66,0.00,,,0.07,weatherlink.com 1.10,2013-05-06 23:44:00,
2013-05-06 19:59:00,50.6,40.0,29.74,SSW,198,1.0,3.0,68,0.00,,,0.07,weatherlink.com 1.10,2013-05-06 23:59:00,
2013-05-06 20:14:00,50.1,41.0,29.75,WSW,245,0.0,3.0,70,0.00,,,0.07,weatherlink.com 1.10,2013-05-07 00:14:00,
2013-05-06 20:29:00,49.5,40.0,29.75,SE,138,0.0,2.0,71,0.00,,,0.07,weatherlink.com 1.10,2013-05-07 00:29:00,
2013-05-06 20:44:00,49.1,40.0,29.76,NE,55,3.0,3.0,71,0.00,,,0.07,weatherlink.com 1.10,2013-05-07 00:44:00,
2013-05-06 20:59:00,48.7,40.0,29.76,ENE,68,1.0,3.0,72,0.00,,,0.07,weatherlink.com 1.10,2013-05-07 00:59:00,
2013-05-06 21:15:00,48.4,40.0,29.77,South,180,0.0,2.0,73,0.00,,,0.07,weatherlink.com 1.10,2013-05-07 01:15:00,
2013-05-06 21:30:00,47.9,40.0,29.78,South,180,0.0,0.0,75,0.00,,,0.07,weatherlink.com 1.10,2013-05-07 01:30:00,
2013-05-06 21:45:00,47.1,40.0,29.78,ESE,103,0.0,2.0,76,0.00,,,0.07,weatherlink.com 1.10,2013-05-07 01:45:00,
2013-05-06 22:00:00,46.5,41.0,29.79,ESE,103,0.0,1.0,80,0.00,,,0.07,weatherlink.com 1.10,2013-05-07 02:00:00,
2013-05-06 22:15:00,46.0,40.0,29.79,ESE,103,0.0,3.0,80,0.00,,,0.07,weatherlink.com 1.10,2013-05-07 02:15:00,
2013-05-06 22:30:00,46.0,41.0,29.80,ESE,103,0.0,0.0,83,0.00,,,0.07,weatherlink.com 1.10,2013-05-07 02:30:00,
2013-05-06 22:45:00,46.2,41.0,29.80,ESE,103,0.0,2.0,81,0.00,,,0.07,weatherlink.com 1.10,2013-05-07 02:45:00,
2013-05-06 23:00:00,46.1,41.0,29.80,ESE,103,0.0,0.0,82,0.00,,,0.07,weatherlink.com 1.10,2013-05-07 03:00:00,
2013-05-06 23:15:00,45.9,41.0,29.80,ESE,103,0.0,0.0,83,0.00,,,0.07,weatherlink.com 1.10,2013-05-07 03:15:00,
2013-05-06 23:30:00,45.8,42.0,29.80,ESE,103,0.0,0.0,86,0.00,,,0.07,weatherlink.com 1.10,2013-05-07 03:30:00,
2013-05-06 23:45:00,45.8,42.0,29.80,ESE,103,0.0,0.0,87,0.00,,,0.07,weatherlink.com 1.10,2013-05-07 03:45:00,